sensor_id;sensor_type;location;lat;lon;timestamp;P1;durP1;ratioP1;P2;durP2;ratioP2
34359;SDS011;20624;55.870;26.506;2022-11-15T00:00:54;1.27;;;0.43;;
34359;SDS011;20624;55.870;26.506;2022-11-15T00:03:22;2.08;;;0.30;;
34359;SDS011;20624;55.870;26.506;2022-11-15T00:05:51;2.30;;;0.40;;
34359;SDS011;20624;55.870;26.506;2022-11-15T00:08:19;3.80;;;0.68;;
34359;SDS011;20624;55.870;26.506;2022-11-15T00:10:56;0.90;;;0.30;;
34359;SDS011;20624;55.870;26.506;2022-11-15T00:13:25;0.75;;;0.20;;
34359;SDS011;20624;55.870;26.506;2022-11-15T00:15:56;1.65;;;0.40;;
34359;SDS011;20624;55.870;26.506;2022-11-15T00:18:24;4.22;;;0.70;;
34359;SDS011;20624;55.870;26.506;2022-11-15T00:20:52;1.27;;;0.35;;
34359;SDS011;20624;55.870;26.506;2022-11-15T00:23:20;2.30;;;0.40;;
34359;SDS011;20624;55.870;26.506;2022-11-15T00:25:55;2.28;;;0.47;;
34359;SDS011;20624;55.870;26.506;2022-11-15T00:28:24;3.72;;;0.63;;
34359;SDS011;20624;55.870;26.506;2022-11-15T00:30:51;2.10;;;0.52;;
34359;SDS011;20624;55.870;26.506;2022-11-15T00:33:20;6.10;;;1.00;;
34359;SDS011;20624;55.870;26.506;2022-11-15T00:35:48;3.90;;;0.60;;
34359;SDS011;20624;55.870;26.506;2022-11-15T00:38:15;1.65;;;0.40;;
34359;SDS011;20624;55.870;26.506;2022-11-15T00:40:43;1.35;;;0.45;;
34359;SDS011;20624;55.870;26.506;2022-11-15T00:43:11;1.25;;;0.30;;
34359;SDS011;20624;55.870;26.506;2022-11-15T00:45:38;3.38;;;0.52;;
34359;SDS011;20624;55.870;26.506;2022-11-15T00:48:07;3.90;;;0.57;;
34359;SDS011;20624;55.870;26.506;2022-11-15T00:50:34;1.33;;;0.30;;
34359;SDS011;20624;55.870;26.506;2022-11-15T00:53:02;2.40;;;0.50;;
34359;SDS011;20624;55.870;26.506;2022-11-15T00:55:29;2.50;;;0.50;;
34359;SDS011;20624;55.870;26.506;2022-11-15T00:57:57;3.58;;;0.57;;
34359;SDS011;20624;55.870;26.506;2022-11-15T01:00:25;1.83;;;0.50;;
34359;SDS011;20624;55.870;26.506;2022-11-15T01:02:52;2.90;;;0.47;;
34359;SDS011;20624;55.870;26.506;2022-11-15T01:05:20;1.23;;;0.30;;
34359;SDS011;20624;55.870;26.506;2022-11-15T01:07:51;3.47;;;0.60;;
34359;SDS011;20624;55.870;26.506;2022-11-15T01:10:19;2.03;;;0.40;;
34359;SDS011;20624;55.870;26.506;2022-11-15T01:12:47;1.27;;;0.30;;
34359;SDS011;20624;55.870;26.506;2022-11-15T01:15:14;1.10;;;0.40;;
34359;SDS011;20624;55.870;26.506;2022-11-15T01:17:42;4.75;;;0.77;;
34359;SDS011;20624;55.870;26.506;2022-11-15T01:20:10;1.52;;;0.52;;
34359;SDS011;20624;55.870;26.506;2022-11-15T01:22:38;4.90;;;0.77;;
34359;SDS011;20624;55.870;26.506;2022-11-15T01:25:07;5.05;;;0.77;;
34359;SDS011;20624;55.870;26.506;2022-11-15T01:27:34;6.90;;;0.90;;
34359;SDS011;20624;55.870;26.506;2022-11-15T01:30:02;1.83;;;0.38;;
34359;SDS011;20624;55.870;26.506;2022-11-15T01:32:31;3.53;;;0.68;;
34359;SDS011;20624;55.870;26.506;2022-11-15T01:34:58;0.63;;;0.32;;
34359;SDS011;20624;55.870;26.506;2022-11-15T01:37:26;2.20;;;0.57;;
34359;SDS011;20624;55.870;26.506;2022-11-15T01:39:54;3.88;;;0.70;;
34359;SDS011;20624;55.870;26.506;2022-11-15T01:42:22;0.93;;;0.25;;
34359;SDS011;20624;55.870;26.506;2022-11-15T01:44:50;2.90;;;0.55;;
34359;SDS011;20624;55.870;26.506;2022-11-15T01:47:23;1.10;;;0.30;;
34359;SDS011;20624;55.870;26.506;2022-11-15T01:49:57;2.45;;;0.40;;
34359;SDS011;20624;55.870;26.506;2022-11-15T01:52:34;4.10;;;0.70;;
34359;SDS011;20624;55.870;26.506;2022-11-15T01:57:42;16.15;;;2.25;;
34359;SDS011;20624;55.870;26.506;2022-11-15T02:00:13;2.20;;;0.43;;
34359;SDS011;20624;55.870;26.506;2022-11-15T02:02:41;3.90;;;0.52;;
34359;SDS011;20624;55.870;26.506;2022-11-15T02:05:09;2.45;;;0.43;;
34359;SDS011;20624;55.870;26.506;2022-11-15T02:07:37;3.85;;;0.70;;
34359;SDS011;20624;55.870;26.506;2022-11-15T02:10:09;1.48;;;0.38;;
34359;SDS011;20624;55.870;26.506;2022-11-15T02:12:38;1.25;;;0.20;;
34359;SDS011;20624;55.870;26.506;2022-11-15T02:15:06;2.15;;;0.40;;
34359;SDS011;20624;55.870;26.506;2022-11-15T02:20:33;0.68;;;0.20;;
34359;SDS011;20624;55.870;26.506;2022-11-15T02:34:23;9.82;;;1.30;;
34359;SDS011;20624;55.870;26.506;2022-11-15T02:39:28;2.25;;;0.50;;
34359;SDS011;20624;55.870;26.506;2022-11-15T02:44:55;2.45;;;0.50;;
34359;SDS011;20624;55.870;26.506;2022-11-15T02:47:25;2.08;;;0.40;;
34359;SDS011;20624;55.870;26.506;2022-11-15T02:49:58;2.63;;;0.60;;
34359;SDS011;20624;55.870;26.506;2022-11-15T02:52:32;4.93;;;0.82;;
34359;SDS011;20624;55.870;26.506;2022-11-15T02:55:00;2.50;;;0.50;;
34359;SDS011;20624;55.870;26.506;2022-11-15T03:10:32;2.13;;;0.40;;
34359;SDS011;20624;55.870;26.506;2022-11-15T03:16:06;2.35;;;0.40;;
34359;SDS011;20624;55.870;26.506;2022-11-15T03:18:41;1.35;;;0.32;;
34359;SDS011;20624;55.870;26.506;2022-11-15T03:21:14;1.48;;;0.38;;
34359;SDS011;20624;55.870;26.506;2022-11-15T03:23:43;5.63;;;0.90;;
34359;SDS011;20624;55.870;26.506;2022-11-15T03:26:14;1.75;;;0.40;;
34359;SDS011;20624;55.870;26.506;2022-11-15T03:28:52;2.10;;;0.57;;
34359;SDS011;20624;55.870;26.506;2022-11-15T03:31:31;5.53;;;0.80;;
34359;SDS011;20624;55.870;26.506;2022-11-15T03:34:21;4.95;;;0.70;;
34359;SDS011;20624;55.870;26.506;2022-11-15T03:36:54;2.78;;;0.40;;
34359;SDS011;20624;55.870;26.506;2022-11-15T03:39:21;6.63;;;1.02;;
34359;SDS011;20624;55.870;26.506;2022-11-15T03:45:06;1.67;;;0.35;;
34359;SDS011;20624;55.870;26.506;2022-11-15T03:47:46;8.82;;;1.23;;
34359;SDS011;20624;55.870;26.506;2022-11-15T03:50:28;3.45;;;0.70;;
34359;SDS011;20624;55.870;26.506;2022-11-15T03:52:56;5.45;;;0.80;;
34359;SDS011;20624;55.870;26.506;2022-11-15T03:55:25;10.52;;;1.50;;
34359;SDS011;20624;55.870;26.506;2022-11-15T03:57:53;3.42;;;0.70;;
34359;SDS011;20624;55.870;26.506;2022-11-15T04:00:22;2.13;;;0.43;;
34359;SDS011;20624;55.870;26.506;2022-11-15T04:02:49;14.07;;;1.92;;
34359;SDS011;20624;55.870;26.506;2022-11-15T04:05:17;3.83;;;0.85;;
34359;SDS011;20624;55.870;26.506;2022-11-15T04:07:45;3.47;;;0.60;;
34359;SDS011;20624;55.870;26.506;2022-11-15T04:10:13;8.90;;;1.27;;
34359;SDS011;20624;55.870;26.506;2022-11-15T04:12:44;3.33;;;0.73;;
34359;SDS011;20624;55.870;26.506;2022-11-15T04:15:20;4.63;;;0.80;;
34359;SDS011;20624;55.870;26.506;2022-11-15T04:17:49;3.35;;;0.52;;
34359;SDS011;20624;55.870;26.506;2022-11-15T04:20:19;1.75;;;0.40;;
34359;SDS011;20624;55.870;26.506;2022-11-15T04:23:09;1.17;;;0.30;;
34359;SDS011;20624;55.870;26.506;2022-11-15T04:25:58;7.15;;;1.15;;
34359;SDS011;20624;55.870;26.506;2022-11-15T04:28:29;2.47;;;0.50;;
34359;SDS011;20624;55.870;26.506;2022-11-15T04:30:57;6.93;;;1.00;;
34359;SDS011;20624;55.870;26.506;2022-11-15T04:33:24;3.60;;;0.65;;
34359;SDS011;20624;55.870;26.506;2022-11-15T04:35:52;2.15;;;0.50;;
34359;SDS011;20624;55.870;26.506;2022-11-15T04:38:39;3.83;;;0.63;;
34359;SDS011;20624;55.870;26.506;2022-11-15T04:41:06;5.63;;;0.90;;
34359;SDS011;20624;55.870;26.506;2022-11-15T04:43:34;4.35;;;0.70;;
34359;SDS011;20624;55.870;26.506;2022-11-15T04:46:02;3.38;;;0.60;;
34359;SDS011;20624;55.870;26.506;2022-11-15T04:48:29;4.05;;;0.75;;
34359;SDS011;20624;55.870;26.506;2022-11-15T04:50:57;8.10;;;1.15;;
34359;SDS011;20624;55.870;26.506;2022-11-15T04:53:25;11.30;;;1.63;;
34359;SDS011;20624;55.870;26.506;2022-11-15T04:55:52;6.75;;;1.00;;
34359;SDS011;20624;55.870;26.506;2022-11-15T04:58:20;13.00;;;2.10;;
34359;SDS011;20624;55.870;26.506;2022-11-15T05:00:48;1.52;;;0.40;;
34359;SDS011;20624;55.870;26.506;2022-11-15T05:03:15;4.80;;;0.85;;
34359;SDS011;20624;55.870;26.506;2022-11-15T05:06:02;2.80;;;0.40;;
34359;SDS011;20624;55.870;26.506;2022-11-15T05:08:30;0.98;;;0.30;;
34359;SDS011;20624;55.870;26.506;2022-11-15T05:10:57;6.07;;;0.93;;
34359;SDS011;20624;55.870;26.506;2022-11-15T05:13:25;9.93;;;1.55;;
34359;SDS011;20624;55.870;26.506;2022-11-15T05:15:53;14.93;;;2.05;;
34359;SDS011;20624;55.870;26.506;2022-11-15T05:18:21;3.60;;;0.60;;
34359;SDS011;20624;55.870;26.506;2022-11-15T05:20:49;3.42;;;0.70;;
34359;SDS011;20624;55.870;26.506;2022-11-15T05:23:17;12.00;;;1.65;;
34359;SDS011;20624;55.870;26.506;2022-11-15T05:25:45;2.53;;;0.52;;
34359;SDS011;20624;55.870;26.506;2022-11-15T05:28:13;2.22;;;0.50;;
34359;SDS011;20624;55.870;26.506;2022-11-15T05:30:40;3.78;;;0.63;;
34359;SDS011;20624;55.870;26.506;2022-11-15T05:33:08;2.30;;;0.50;;
34359;SDS011;20624;55.870;26.506;2022-11-15T05:35:40;2.65;;;0.60;;
34359;SDS011;20624;55.870;26.506;2022-11-15T05:38:08;9.73;;;1.30;;
34359;SDS011;20624;55.870;26.506;2022-11-15T05:40:36;7.97;;;1.17;;
34359;SDS011;20624;55.870;26.506;2022-11-15T05:43:03;1.85;;;0.50;;
34359;SDS011;20624;55.870;26.506;2022-11-15T05:45:32;11.43;;;1.77;;
34359;SDS011;20624;55.870;26.506;2022-11-15T05:48:01;6.32;;;1.00;;
34359;SDS011;20624;55.870;26.506;2022-11-15T05:50:33;6.93;;;1.02;;
34359;SDS011;20624;55.870;26.506;2022-11-15T05:53:03;20.08;;;2.88;;
34359;SDS011;20624;55.870;26.506;2022-11-15T05:55:32;10.68;;;1.67;;
34359;SDS011;20624;55.870;26.506;2022-11-15T05:58:00;24.98;;;3.45;;
34359;SDS011;20624;55.870;26.506;2022-11-15T06:00:28;15.02;;;2.20;;
34359;SDS011;20624;55.870;26.506;2022-11-15T06:02:56;12.88;;;1.92;;
34359;SDS011;20624;55.870;26.506;2022-11-15T06:05:23;13.43;;;1.98;;
34359;SDS011;20624;55.870;26.506;2022-11-15T06:07:51;20.35;;;2.72;;
34359;SDS011;20624;55.870;26.506;2022-11-15T06:10:19;19.23;;;2.53;;
34359;SDS011;20624;55.870;26.506;2022-11-15T06:12:47;24.58;;;3.28;;
34359;SDS011;20624;55.870;26.506;2022-11-15T06:15:14;17.20;;;2.33;;
34359;SDS011;20624;55.870;26.506;2022-11-15T06:17:42;20.83;;;2.75;;
34359;SDS011;20624;55.870;26.506;2022-11-15T06:20:10;21.55;;;2.85;;
34359;SDS011;20624;55.870;26.506;2022-11-15T06:22:38;30.00;;;3.97;;
34359;SDS011;20624;55.870;26.506;2022-11-15T06:25:06;16.85;;;2.35;;
34359;SDS011;20624;55.870;26.506;2022-11-15T06:27:34;29.83;;;4.05;;
34359;SDS011;20624;55.870;26.506;2022-11-15T06:30:02;22.73;;;3.08;;
34359;SDS011;20624;55.870;26.506;2022-11-15T06:32:29;31.67;;;4.15;;
34359;SDS011;20624;55.870;26.506;2022-11-15T06:34:58;23.27;;;3.22;;
34359;SDS011;20624;55.870;26.506;2022-11-15T06:37:25;15.63;;;2.15;;
34359;SDS011;20624;55.870;26.506;2022-11-15T06:39:53;13.88;;;1.95;;
34359;SDS011;20624;55.870;26.506;2022-11-15T06:42:21;35.45;;;4.65;;
34359;SDS011;20624;55.870;26.506;2022-11-15T06:44:49;25.48;;;3.40;;
34359;SDS011;20624;55.870;26.506;2022-11-15T06:47:16;13.82;;;1.90;;
34359;SDS011;20624;55.870;26.506;2022-11-15T06:49:44;28.98;;;3.80;;
34359;SDS011;20624;55.870;26.506;2022-11-15T06:52:12;15.38;;;2.63;;
34359;SDS011;20624;55.870;26.506;2022-11-15T06:54:40;24.50;;;3.33;;
34359;SDS011;20624;55.870;26.506;2022-11-15T06:57:08;22.23;;;2.95;;
34359;SDS011;20624;55.870;26.506;2022-11-15T06:59:36;33.05;;;4.45;;
34359;SDS011;20624;55.870;26.506;2022-11-15T07:02:12;21.17;;;2.83;;
34359;SDS011;20624;55.870;26.506;2022-11-15T07:04:40;7.88;;;1.33;;
34359;SDS011;20624;55.870;26.506;2022-11-15T07:07:08;23.08;;;3.20;;
34359;SDS011;20624;55.870;26.506;2022-11-15T07:09:35;21.02;;;2.85;;
34359;SDS011;20624;55.870;26.506;2022-11-15T07:12:03;57.33;;;7.63;;
34359;SDS011;20624;55.870;26.506;2022-11-15T07:14:33;18.60;;;2.60;;
34359;SDS011;20624;55.870;26.506;2022-11-15T07:17:03;18.77;;;2.58;;
34359;SDS011;20624;55.870;26.506;2022-11-15T07:19:31;49.20;;;6.47;;
34359;SDS011;20624;55.870;26.506;2022-11-15T07:21:59;29.60;;;3.85;;
34359;SDS011;20624;55.870;26.506;2022-11-15T07:24:27;25.23;;;3.53;;
34359;SDS011;20624;55.870;26.506;2022-11-15T07:26:55;20.70;;;2.78;;
34359;SDS011;20624;55.870;26.506;2022-11-15T07:29:23;54.03;;;7.13;;
34359;SDS011;20624;55.870;26.506;2022-11-15T07:31:51;58.55;;;7.70;;
34359;SDS011;20624;55.870;26.506;2022-11-15T07:34:19;38.30;;;5.03;;
34359;SDS011;20624;55.870;26.506;2022-11-15T07:36:47;53.17;;;7.07;;
34359;SDS011;20624;55.870;26.506;2022-11-15T07:39:14;40.67;;;5.32;;
34359;SDS011;20624;55.870;26.506;2022-11-15T07:41:42;32.53;;;4.57;;
34359;SDS011;20624;55.870;26.506;2022-11-15T07:44:11;23.25;;;3.35;;
34359;SDS011;20624;55.870;26.506;2022-11-15T07:46:38;67.15;;;9.00;;
34359;SDS011;20624;55.870;26.506;2022-11-15T07:49:06;60.03;;;7.88;;
34359;SDS011;20624;55.870;26.506;2022-11-15T07:51:34;64.40;;;8.65;;
34359;SDS011;20624;55.870;26.506;2022-11-15T07:54:02;41.63;;;5.80;;
34359;SDS011;20624;55.870;26.506;2022-11-15T07:56:29;59.00;;;7.85;;
34359;SDS011;20624;55.870;26.506;2022-11-15T07:58:57;63.90;;;8.88;;
34359;SDS011;20624;55.870;26.506;2022-11-15T08:01:25;63.10;;;8.48;;
34359;SDS011;20624;55.870;26.506;2022-11-15T08:03:53;43.90;;;6.18;;
34359;SDS011;20624;55.870;26.506;2022-11-15T08:06:21;36.47;;;5.47;;
34359;SDS011;20624;55.870;26.506;2022-11-15T08:08:49;58.13;;;7.97;;
34359;SDS011;20624;55.870;26.506;2022-11-15T08:11:17;43.80;;;5.97;;
34359;SDS011;20624;55.870;26.506;2022-11-15T08:13:45;61.28;;;8.43;;
34359;SDS011;20624;55.870;26.506;2022-11-15T08:16:12;46.25;;;6.43;;
34359;SDS011;20624;55.870;26.506;2022-11-15T08:18:40;33.63;;;4.88;;
34359;SDS011;20624;55.870;26.506;2022-11-15T08:21:08;27.98;;;4.07;;
34359;SDS011;20624;55.870;26.506;2022-11-15T08:23:43;46.80;;;6.18;;
34359;SDS011;20624;55.870;26.506;2022-11-15T08:26:11;49.33;;;6.45;;
34359;SDS011;20624;55.870;26.506;2022-11-15T08:28:39;43.40;;;6.20;;
34359;SDS011;20624;55.870;26.506;2022-11-15T08:31:12;38.85;;;5.65;;
34359;SDS011;20624;55.870;26.506;2022-11-15T08:33:44;44.80;;;6.05;;
34359;SDS011;20624;55.870;26.506;2022-11-15T08:36:13;47.10;;;6.25;;
34359;SDS011;20624;55.870;26.506;2022-11-15T08:38:41;41.13;;;5.72;;
34359;SDS011;20624;55.870;26.506;2022-11-15T08:41:10;41.80;;;5.60;;
34359;SDS011;20624;55.870;26.506;2022-11-15T08:43:57;52.03;;;7.07;;
34359;SDS011;20624;55.870;26.506;2022-11-15T08:46:25;35.55;;;5.28;;
34359;SDS011;20624;55.870;26.506;2022-11-15T08:48:53;71.10;;;9.45;;
34359;SDS011;20624;55.870;26.506;2022-11-15T08:51:21;38.17;;;5.55;;
34359;SDS011;20624;55.870;26.506;2022-11-15T08:53:48;35.75;;;5.03;;
34359;SDS011;20624;55.870;26.506;2022-11-15T08:56:16;59.47;;;7.97;;
34359;SDS011;20624;55.870;26.506;2022-11-15T08:58:44;43.10;;;5.78;;
34359;SDS011;20624;55.870;26.506;2022-11-15T09:01:17;46.95;;;6.10;;
34359;SDS011;20624;55.870;26.506;2022-11-15T09:03:44;44.97;;;6.25;;
34359;SDS011;20624;55.870;26.506;2022-11-15T09:06:12;50.72;;;6.55;;
34359;SDS011;20624;55.870;26.506;2022-11-15T09:08:41;46.80;;;6.18;;
34359;SDS011;20624;55.870;26.506;2022-11-15T09:11:13;75.65;;;9.98;;
34359;SDS011;20624;55.870;26.506;2022-11-15T09:13:43;39.38;;;5.25;;
34359;SDS011;20624;55.870;26.506;2022-11-15T09:16:10;47.60;;;6.32;;
34359;SDS011;20624;55.870;26.506;2022-11-15T09:18:39;25.67;;;3.65;;
34359;SDS011;20624;55.870;26.506;2022-11-15T09:21:06;29.23;;;4.13;;
34359;SDS011;20624;55.870;26.506;2022-11-15T09:23:34;19.90;;;2.85;;
34359;SDS011;20624;55.870;26.506;2022-11-15T09:26:03;48.53;;;6.63;;
34359;SDS011;20624;55.870;26.506;2022-11-15T09:28:32;48.92;;;6.82;;
34359;SDS011;20624;55.870;26.506;2022-11-15T09:31:02;50.28;;;6.88;;
34359;SDS011;20624;55.870;26.506;2022-11-15T09:33:30;39.25;;;5.53;;
34359;SDS011;20624;55.870;26.506;2022-11-15T09:36:05;42.28;;;5.70;;
34359;SDS011;20624;55.870;26.506;2022-11-15T09:38:34;35.47;;;4.93;;
34359;SDS011;20624;55.870;26.506;2022-11-15T09:48:56;55.15;;;6.53;;
34359;SDS011;20624;55.870;26.506;2022-11-15T09:54:47;36.08;;;4.78;;
34359;SDS011;20624;55.870;26.506;2022-11-15T09:57:21;57.40;;;7.30;;
34359;SDS011;20624;55.870;26.506;2022-11-15T09:59:55;42.53;;;5.85;;
34359;SDS011;20624;55.870;26.506;2022-11-15T10:05:47;35.72;;;4.95;;
34359;SDS011;20624;55.870;26.506;2022-11-15T10:11:22;49.22;;;6.38;;
34359;SDS011;20624;55.870;26.506;2022-11-15T10:14:14;71.15;;;9.23;;
34359;SDS011;20624;55.870;26.506;2022-11-15T10:22:39;37.90;;;5.10;;
34359;SDS011;20624;55.870;26.506;2022-11-15T10:28:03;50.53;;;6.55;;
34359;SDS011;20624;55.870;26.506;2022-11-15T10:30:45;33.05;;;4.70;;
34359;SDS011;20624;55.870;26.506;2022-11-15T10:38:54;34.60;;;4.53;;
34359;SDS011;20624;55.870;26.506;2022-11-15T10:46:39;44.03;;;6.03;;
34359;SDS011;20624;55.870;26.506;2022-11-15T10:49:17;50.72;;;6.75;;
34359;SDS011;20624;55.870;26.506;2022-11-15T10:54:40;17.17;;;2.42;;
34359;SDS011;20624;55.870;26.506;2022-11-15T10:57:26;22.27;;;3.15;;
34359;SDS011;20624;55.870;26.506;2022-11-15T10:59:55;38.20;;;5.10;;
34359;SDS011;20624;55.870;26.506;2022-11-15T11:02:45;27.88;;;3.95;;
34359;SDS011;20624;55.870;26.506;2022-11-15T11:05:30;35.72;;;4.97;;
34359;SDS011;20624;55.870;26.506;2022-11-15T11:10:37;47.97;;;6.57;;
34359;SDS011;20624;55.870;26.506;2022-11-15T11:13:26;23.85;;;3.45;;
34359;SDS011;20624;55.870;26.506;2022-11-15T11:18:44;62.75;;;8.55;;
34359;SDS011;20624;55.870;26.506;2022-11-15T11:27:00;41.50;;;5.40;;
34359;SDS011;20624;55.870;26.506;2022-11-15T11:29:49;44.50;;;6.13;;
34359;SDS011;20624;55.870;26.506;2022-11-15T11:32:35;39.70;;;5.63;;
34359;SDS011;20624;55.870;26.506;2022-11-15T11:35:39;57.25;;;7.47;;
34359;SDS011;20624;55.870;26.506;2022-11-15T11:49:34;39.65;;;5.55;;
34359;SDS011;20624;55.870;26.506;2022-11-15T11:55:14;37.28;;;5.07;;
34359;SDS011;20624;55.870;26.506;2022-11-15T11:57:47;42.28;;;5.82;;
34359;SDS011;20624;55.870;26.506;2022-11-15T12:00:35;57.55;;;7.53;;
34359;SDS011;20624;55.870;26.506;2022-11-15T12:03:12;39.20;;;5.32;;
34359;SDS011;20624;55.870;26.506;2022-11-15T12:05:52;30.52;;;3.80;;
34359;SDS011;20624;55.870;26.506;2022-11-15T12:08:36;27.75;;;3.80;;
34359;SDS011;20624;55.870;26.506;2022-11-15T12:13:59;19.27;;;2.63;;
34359;SDS011;20624;55.870;26.506;2022-11-15T12:16:30;50.35;;;6.65;;
34359;SDS011;20624;55.870;26.506;2022-11-15T12:19:02;30.25;;;3.95;;
34359;SDS011;20624;55.870;26.506;2022-11-15T12:24:44;35.83;;;4.68;;
34359;SDS011;20624;55.870;26.506;2022-11-15T12:27:17;43.22;;;5.75;;
34359;SDS011;20624;55.870;26.506;2022-11-15T12:30:00;42.08;;;5.57;;
34359;SDS011;20624;55.870;26.506;2022-11-15T12:32:37;33.72;;;4.57;;
34359;SDS011;20624;55.870;26.506;2022-11-15T12:35:20;51.88;;;7.00;;
34359;SDS011;20624;55.870;26.506;2022-11-15T12:37:56;30.42;;;4.15;;
34359;SDS011;20624;55.870;26.506;2022-11-15T12:40:25;29.35;;;4.18;;
34359;SDS011;20624;55.870;26.506;2022-11-15T12:43:04;41.92;;;5.53;;
34359;SDS011;20624;55.870;26.506;2022-11-15T12:45:43;35.92;;;4.75;;
34359;SDS011;20624;55.870;26.506;2022-11-15T13:01:10;46.95;;;6.38;;
34359;SDS011;20624;55.870;26.506;2022-11-15T13:06:49;33.15;;;4.75;;
34359;SDS011;20624;55.870;26.506;2022-11-15T13:10:07;34.75;;;4.65;;
34359;SDS011;20624;55.870;26.506;2022-11-15T13:12:10;35.33;;;4.88;;
34359;SDS011;20624;55.870;26.506;2022-11-15T13:17:16;34.80;;;4.88;;
34359;SDS011;20624;55.870;26.506;2022-11-15T13:23:00;37.90;;;5.07;;
34359;SDS011;20624;55.870;26.506;2022-11-15T13:28:03;26.95;;;3.80;;
34359;SDS011;20624;55.870;26.506;2022-11-15T13:33:14;50.75;;;6.88;;
34359;SDS011;20624;55.870;26.506;2022-11-15T13:40:56;40.30;;;5.40;;
34359;SDS011;20624;55.870;26.506;2022-11-15T13:48:34;51.17;;;7.30;;
34359;SDS011;20624;55.870;26.506;2022-11-15T13:51:03;51.50;;;6.88;;
34359;SDS011;20624;55.870;26.506;2022-11-15T13:53:32;67.85;;;8.95;;
34359;SDS011;20624;55.870;26.506;2022-11-15T13:56:00;31.80;;;4.47;;
34359;SDS011;20624;55.870;26.506;2022-11-15T13:58:30;46.38;;;6.32;;
34359;SDS011;20624;55.870;26.506;2022-11-15T14:01:03;35.97;;;4.93;;
34359;SDS011;20624;55.870;26.506;2022-11-15T14:03:38;47.00;;;6.43;;
34359;SDS011;20624;55.870;26.506;2022-11-15T14:06:09;35.42;;;4.70;;
34359;SDS011;20624;55.870;26.506;2022-11-15T14:08:42;40.92;;;5.63;;
34359;SDS011;20624;55.870;26.506;2022-11-15T14:11:27;50.08;;;6.55;;
34359;SDS011;20624;55.870;26.506;2022-11-15T14:16:44;45.10;;;5.65;;
34359;SDS011;20624;55.870;26.506;2022-11-15T14:30:42;41.13;;;5.95;;
34359;SDS011;20624;55.870;26.506;2022-11-15T14:33:23;29.45;;;4.47;;
34359;SDS011;20624;55.870;26.506;2022-11-15T14:35:58;65.00;;;9.13;;
34359;SDS011;20624;55.870;26.506;2022-11-15T14:38:30;26.15;;;4.13;;
34359;SDS011;20624;55.870;26.506;2022-11-15T14:40:58;51.60;;;7.18;;
34359;SDS011;20624;55.870;26.506;2022-11-15T14:43:26;50.72;;;7.50;;
34359;SDS011;20624;55.870;26.506;2022-11-15T14:45:54;43.50;;;6.55;;
34359;SDS011;20624;55.870;26.506;2022-11-15T14:48:23;35.40;;;5.05;;
34359;SDS011;20624;55.870;26.506;2022-11-15T14:50:50;43.05;;;6.32;;
34359;SDS011;20624;55.870;26.506;2022-11-15T14:53:18;20.48;;;3.08;;
34359;SDS011;20624;55.870;26.506;2022-11-15T14:55:46;45.65;;;6.85;;
34359;SDS011;20624;55.870;26.506;2022-11-15T14:58:13;39.85;;;6.15;;
34359;SDS011;20624;55.870;26.506;2022-11-15T15:00:41;33.30;;;5.22;;
34359;SDS011;20624;55.870;26.506;2022-11-15T15:03:09;33.58;;;5.30;;
34359;SDS011;20624;55.870;26.506;2022-11-15T15:05:40;23.83;;;3.90;;
34359;SDS011;20624;55.870;26.506;2022-11-15T15:08:09;27.30;;;4.50;;
34359;SDS011;20624;55.870;26.506;2022-11-15T15:10:42;24.27;;;4.00;;
34359;SDS011;20624;55.870;26.506;2022-11-15T15:13:21;13.07;;;2.72;;
34359;SDS011;20624;55.870;26.506;2022-11-15T15:15:50;29.73;;;4.38;;
34359;SDS011;20624;55.870;26.506;2022-11-15T15:18:18;36.80;;;5.72;;
34359;SDS011;20624;55.870;26.506;2022-11-15T15:20:47;17.15;;;3.20;;
34359;SDS011;20624;55.870;26.506;2022-11-15T15:23:21;23.98;;;3.65;;
34359;SDS011;20624;55.870;26.506;2022-11-15T15:25:50;18.80;;;3.00;;
34359;SDS011;20624;55.870;26.506;2022-11-15T15:28:19;8.80;;;1.77;;
34359;SDS011;20624;55.870;26.506;2022-11-15T15:30:46;12.80;;;2.38;;
34359;SDS011;20624;55.870;26.506;2022-11-15T15:33:15;40.60;;;5.68;;
34359;SDS011;20624;55.870;26.506;2022-11-15T15:35:43;12.30;;;2.33;;
34359;SDS011;20624;55.870;26.506;2022-11-15T15:38:11;19.55;;;3.00;;
34359;SDS011;20624;55.870;26.506;2022-11-15T15:40:39;17.02;;;2.72;;
34359;SDS011;20624;55.870;26.506;2022-11-15T15:43:07;13.88;;;2.38;;
34359;SDS011;20624;55.870;26.506;2022-11-15T15:45:36;14.30;;;2.90;;
34359;SDS011;20624;55.870;26.506;2022-11-15T15:48:05;12.48;;;2.15;;
34359;SDS011;20624;55.870;26.506;2022-11-15T15:50:34;11.32;;;2.05;;
34359;SDS011;20624;55.870;26.506;2022-11-15T15:53:03;13.93;;;2.55;;
34359;SDS011;20624;55.870;26.506;2022-11-15T15:55:31;13.05;;;2.28;;
34359;SDS011;20624;55.870;26.506;2022-11-15T15:57:58;8.10;;;1.80;;
34359;SDS011;20624;55.870;26.506;2022-11-15T16:00:26;12.75;;;2.08;;
34359;SDS011;20624;55.870;26.506;2022-11-15T16:02:54;23.38;;;3.28;;
34359;SDS011;20624;55.870;26.506;2022-11-15T16:05:21;19.38;;;3.00;;
34359;SDS011;20624;55.870;26.506;2022-11-15T16:07:49;18.00;;;2.60;;
34359;SDS011;20624;55.870;26.506;2022-11-15T16:10:27;20.20;;;2.97;;
34359;SDS011;20624;55.870;26.506;2022-11-15T16:12:57;10.15;;;1.85;;
34359;SDS011;20624;55.870;26.506;2022-11-15T16:15:29;10.52;;;1.85;;
34359;SDS011;20624;55.870;26.506;2022-11-15T16:17:59;12.35;;;1.73;;
34359;SDS011;20624;55.870;26.506;2022-11-15T16:23:03;16.45;;;2.35;;
34359;SDS011;20624;55.870;26.506;2022-11-15T16:25:45;6.65;;;1.33;;
34359;SDS011;20624;55.870;26.506;2022-11-15T16:28:20;17.13;;;2.65;;
34359;SDS011;20624;55.870;26.506;2022-11-15T16:30:49;11.93;;;1.80;;
34359;SDS011;20624;55.870;26.506;2022-11-15T16:33:34;22.00;;;3.22;;
34359;SDS011;20624;55.870;26.506;2022-11-15T16:36:03;13.77;;;2.08;;
34359;SDS011;20624;55.870;26.506;2022-11-15T16:38:31;5.15;;;1.38;;
34359;SDS011;20624;55.870;26.506;2022-11-15T16:41:00;10.68;;;1.80;;
34359;SDS011;20624;55.870;26.506;2022-11-15T16:43:27;11.10;;;1.77;;
34359;SDS011;20624;55.870;26.506;2022-11-15T16:45:55;9.60;;;1.67;;
34359;SDS011;20624;55.870;26.506;2022-11-15T16:48:24;9.65;;;1.52;;
34359;SDS011;20624;55.870;26.506;2022-11-15T16:50:56;7.45;;;1.35;;
34359;SDS011;20624;55.870;26.506;2022-11-15T16:53:25;13.02;;;2.10;;
34359;SDS011;20624;55.870;26.506;2022-11-15T16:55:56;6.53;;;1.17;;
34359;SDS011;20624;55.870;26.506;2022-11-15T16:58:23;2.78;;;0.70;;
34359;SDS011;20624;55.870;26.506;2022-11-15T17:00:51;15.52;;;2.53;;
34359;SDS011;20624;55.870;26.506;2022-11-15T17:03:20;12.30;;;1.77;;
34359;SDS011;20624;55.870;26.506;2022-11-15T17:05:47;4.05;;;0.70;;
34359;SDS011;20624;55.870;26.506;2022-11-15T17:08:15;6.80;;;1.33;;
34359;SDS011;20624;55.870;26.506;2022-11-15T17:10:43;15.77;;;2.45;;
34359;SDS011;20624;55.870;26.506;2022-11-15T17:13:11;8.05;;;1.42;;
34359;SDS011;20624;55.870;26.506;2022-11-15T17:15:39;24.73;;;3.42;;
34359;SDS011;20624;55.870;26.506;2022-11-15T17:18:09;7.00;;;1.38;;
34359;SDS011;20624;55.870;26.506;2022-11-15T17:20:39;2.13;;;0.68;;
34359;SDS011;20624;55.870;26.506;2022-11-15T17:23:10;25.40;;;3.65;;
34359;SDS011;20624;55.870;26.506;2022-11-15T17:25:41;6.47;;;1.38;;
34359;SDS011;20624;55.870;26.506;2022-11-15T17:28:09;5.28;;;0.95;;
34359;SDS011;20624;55.870;26.506;2022-11-15T17:30:39;7.50;;;1.60;;
34359;SDS011;20624;55.870;26.506;2022-11-15T17:33:08;8.38;;;1.33;;